Etusivu
METAR-TAF:

METAR-TAF

Lentoasemat :

Roatán, Honduras

Leveyspiiri: 16-19N, Pituuspiiri: 086-31W, korkeus merenpinnasta: 5 m

Tämänhetkinen sää

Tämä raportti tehtiin 20 minuuttia sitten, kello 20.00 UTC
Tuuli 15 kn idästä
Lämpötila 31°C
Kosteus 71%
Ilmanpaine 1011 hPa
Näkyvyys 10 km tai enemmän
ei pilviä alle 1500 m:ssä eikä cumulonimbus-pilviä

METAR: MHRO 212000Z 09015KT CAVOK 31/25 Q1011 A2986 NOSIG

Aika: 14:20 (20:20 UTC)

Sääennuste

Tämä raportti tehtiin 3 tuntia ja 20 minuuttia sitten, kello 17.00 UTC
Ennuste voimassa 21. päivästä klo 18 UTC - 22. päivään klo 18 UTC
Tuuli 18 kn idästä
Näkyvyys 10 km tai enemmän
Muutamia pilviä 2500 ft:n korkeudessa

TAF: MHRO 211700Z 2118/2218 09018KT 9999 FEW025 TX31/2119Z TN27/2212Z

Säähavainnot ja -ennusteet yli 4000 lentoasemalta (METAR- ja TAF-raportit).

Käytössä olevat sääasemat on merkitty karttaan keltaisilla ja punaisilla pisteillä.

Aseta hiiri pisteen päälle nähdäksesi sääaseman nimen.

Klikkaa sitten nähdäksesi säähavainnot ja -ennusteet.

Kartan vaihtaminen: klikkaa mustalla rastilla varustettuja vihreitä pisteitä, niin voit zoomata sisään; viivalla varustettua vihreää pistettä, niin voit zoomata ulos tai vihreitä nuolia, niin pääset viereisille kartoille.


METAR-TAF: